Main page
METAR-TAF:

METAR-TAF

Airports :

Vitoria, Spain

Vitoria Airport

latitude: 42-53N, longitude: 002-43W, elevation: 513 m

Current weather observation

The report was made 13 minutes ago, at 00:00 UTC
Calm wind
Temperature -1°C
Humidity 93%
Pressure 1025 hPa
Visibility 10 km or more
no clouds below 1500 m and no cumulonimbus

METAR: LEVT 200000Z 00000KT CAVOK M01/M02 Q1025

Time: 01:13 (00:13 UTC)

Forecast

The report was made 1 hour and 13 minutes ago, at 23:00 UTC
Forecast valid from 20 at 00 UTC to 20 at 24 UTC
Wind 4 kt from the Southwest
Visibility 10 km or more
no clouds below 1500 m and no cumulonimbus
Temporary
from 20 at 00 UTC to 20 at 09 UTC
Visibility: 0800 m
Broken clouds at a height of 500 ft
fog
Probability 40% :
Temporary
from 20 at 00 UTC to 20 at 08 UTC
Visibility: 0350 m
at a height of 100 ft
freezing fog

TAF: LEVT 192300Z 2000/2024 23004KT CAVOK TX16/2015Z TNM02/2005Z TEMPO 2000/2009 0800 FG BKN005 PROB40 TEMPO 2000/2008 0350 FZFG VV001

Weather observations and forecasts of more than 4000 airports (METAR and TAF reports).

The available stations are represented by yellow and red dots on the map.

Hover mouse over dot to see the name of the station.

Then click to see weather observations and forecasts.

To change the map : click on the green buttons with a black cross to zoom in, on the green button with a dash to zoom out, or on the green arrows for adjacent maps.


METAR-TAF: